Time;durP1;ratioP1;P1;durP2;ratioP2;P2;SDS_P1;SDS_P2;PMS_P1;PMS_P2;Temp;Humidity;BMP_temperature;BMP_pressure;BME280_temperature;BME280_humidity;BME280_pressure;Samples;Min_cycle;Max_cycle;Signal;HPM_P1;HPM_P2
2022/04/03 00:01:55;;;;;;;24.00;18.27;;;-1.50;94.90;;;;;;5026770;28;20136;-66
2022/04/03 00:04:21;;;;;;;27.25;19.17;;;-1.40;95.40;;;;;;5030105;28;20410;-67
2022/04/03 00:06:46;;;;;;;29.70;20.77;;;-1.50;95.70;;;;;;5029733;28;20037;-68
2022/04/03 00:09:12;;;;;;;27.65;20.48;;;-1.50;95.70;;;;;;5029273;28;20406;-66
2022/04/03 00:11:38;;;;;;;27.10;20.48;;;-1.50;95.20;;;;;;5021453;28;20048;-67
2022/04/03 00:14:03;;;;;;;31.35;22.15;;;-1.50;95.40;;;;;;5023410;28;20415;-67
2022/04/03 00:16:29;;;;;;;27.05;19.55;;;-1.60;95.60;;;;;;5017744;28;20100;-67
2022/04/03 00:18:55;;;;;;;28.55;20.73;;;-1.60;94.70;;;;;;5029080;28;20034;-68
2022/04/03 00:21:20;;;;;;;37.50;25.40;;;-1.60;95.20;;;;;;5029166;28;20052;-67
2022/04/03 00:23:48;;;;;;;35.83;24.05;;;-1.60;94.90;;;;;;5032177;28;20058;-67
2022/04/03 00:26:14;;;;;;;33.20;23.02;;;-1.60;94.50;;;;;;5038196;28;20030;-68
2022/04/03 00:28:40;;;;;;;32.10;22.50;;;-1.60;94.10;;;;;;5022819;28;20028;-67
2022/04/03 00:31:05;;;;;;;30.95;22.88;;;-1.70;94.10;;;;;;5025786;28;20022;-67
2022/04/03 00:33:31;;;;;;;29.40;21.80;;;-1.70;93.80;;;;;;5029108;28;20120;-68
2022/04/03 00:35:57;;;;;;;33.20;22.02;;;-1.60;93.60;;;;;;5029498;28;20390;-68
2022/04/03 00:38:22;;;;;;;35.40;24.23;;;-1.60;94.20;;;;;;5033850;28;20373;-68
2022/04/03 00:40:48;;;;;;;34.47;21.52;;;-1.60;94.00;;;;;;5024049;28;20052;-68
2022/04/03 00:43:15;;;;;;;29.60;19.35;;;-1.60;93.90;;;;;;5032119;28;20426;-68
2022/04/03 00:45:45;;;;;;;30.42;20.80;;;-1.50;94.40;;;;;;5034183;28;20025;-67
2022/04/03 00:48:12;;;;;;;39.20;25.38;;;-1.50;94.50;;;;;;5035315;28;20056;-68
2022/04/03 00:50:37;;;;;;;29.77;21.45;;;-1.60;95.50;;;;;;5025709;28;20080;-68
2022/04/03 00:53:04;;;;;;;31.42;22.38;;;-1.60;94.50;;;;;;5031986;28;20290;-67
2022/04/03 00:55:29;;;;;;;29.35;21.48;;;-1.60;94.70;;;;;;5029880;28;20034;-68
2022/04/03 00:57:57;;;;;;;34.33;23.45;;;-1.60;93.90;;;;;;5023163;28;20666;-68
2022/04/03 01:00:23;;;;;;;34.35;23.33;;;-1.60;94.60;;;;;;5030435;28;20442;-68
2022/04/03 01:02:49;;;;;;;35.55;23.85;;;-1.60;93.80;;;;;;5029248;28;20030;-67
2022/04/03 01:05:15;;;;;;;39.30;26.10;;;-1.70;93.90;;;;;;5023146;28;20021;-68
2022/04/03 01:07:41;;;;;;;50.70;28.98;;;-1.70;94.00;;;;;;5033055;28;20036;-67
2022/04/03 01:10:07;;;;;;;39.83;26.20;;;-1.70;93.30;;;;;;5030670;28;20045;-67
2022/04/03 01:12:32;;;;;;;28.58;20.42;;;-1.70;93.60;;;;;;5022700;28;20058;-67
2022/04/03 01:14:58;;;;;;;49.13;28.80;;;-1.70;92.80;;;;;;5030336;28;20052;-68
2022/04/03 01:17:24;;;;;;;34.40;24.48;;;-1.70;93.60;;;;;;5021167;28;20069;-68
2022/04/03 01:19:49;;;;;;;42.58;27.55;;;-1.70;92.50;;;;;;5030058;28;20329;-68
2022/04/03 01:22:15;;;;;;;37.63;25.30;;;-1.80;92.90;;;;;;5024561;28;20038;-68
2022/04/03 01:24:43;;;;;;;44.85;27.75;;;-1.80;91.80;;;;;;5022587;28;20322;-68
2022/04/03 01:27:09;;;;;;;41.88;27.48;;;-1.80;92.80;;;;;;5024095;28;20076;-68
2022/04/03 01:29:34;;;;;;;36.63;24.65;;;-1.80;92.30;;;;;;5022103;28;20465;-68
2022/04/03 01:32:00;;;;;;;41.78;26.90;;;-1.80;91.60;;;;;;5021311;28;20105;-68
2022/04/03 01:34:26;;;;;;;35.20;23.63;;;-1.80;92.10;;;;;;5023380;28;20367;-68
2022/04/03 01:36:54;;;;;;;39.97;26.40;;;-1.80;91.60;;;;;;5024341;28;20029;-67
2022/04/03 01:39:20;;;;;;;37.95;26.52;;;-1.90;91.80;;;;;;5034195;28;20088;-67
2022/04/03 01:41:45;;;;;;;35.33;23.42;;;-1.90;91.30;;;;;;5021166;28;20025;-68
2022/04/03 01:44:12;;;;;;;35.42;23.95;;;-1.90;91.50;;;;;;5024330;28;20472;-67
2022/04/03 01:46:38;;;;;;;38.78;25.15;;;-1.80;90.80;;;;;;5028269;28;20028;-67
2022/04/03 01:49:05;;;;;;;35.13;23.83;;;-1.90;91.20;;;;;;5027324;28;20087;-68
2022/04/03 01:51:32;;;;;;;32.70;22.38;;;-1.90;91.70;;;;;;5028673;28;20119;-68
2022/04/03 01:53:59;;;;;;;31.95;23.20;;;-1.80;91.20;;;;;;5030870;28;20045;-67
2022/04/03 01:56:25;;;;;;;44.67;26.10;;;-1.80;91.70;;;;;;5032908;28;20405;-68
2022/04/03 01:58:53;;;;;;;39.80;24.75;;;-1.90;91.70;;;;;;5027731;28;20026;-68
2022/04/03 02:01:19;;;;;;;37.40;25.17;;;-1.90;92.00;;;;;;5022765;28;20033;-68
2022/04/03 02:03:46;;;;;;;44.50;28.08;;;-1.90;91.70;;;;;;5032082;28;20029;-68
2022/04/03 02:06:15;;;;;;;34.45;23.77;;;-1.90;91.90;;;;;;5025645;28;20029;-67
2022/04/03 02:08:41;;;;;;;35.95;24.67;;;-1.80;90.90;;;;;;5019409;28;20014;-68
2022/04/03 02:11:07;;;;;;;37.65;26.30;;;-1.80;91.80;;;;;;5021219;28;20345;-67
2022/04/03 02:13:33;;;;;;;37.25;24.38;;;-1.90;92.40;;;;;;5022201;28;20026;-68
2022/04/03 02:15:58;;;;;;;31.95;23.13;;;-1.90;92.10;;;;;;5032369;28;20030;-68
2022/04/03 02:18:24;;;;;;;41.97;26.17;;;-1.80;92.00;;;;;;5021120;28;20032;-69
2022/04/03 02:20:50;;;;;;;37.78;24.80;;;-1.80;92.30;;;;;;5028432;28;20041;-67
2022/04/03 02:23:16;;;;;;;38.22;25.70;;;-1.80;92.00;;;;;;5023537;28;20075;-68
2022/04/03 02:25:41;;;;;;;37.38;24.02;;;-1.90;93.00;;;;;;5018079;28;20436;-67
2022/04/03 02:28:09;;;;;;;42.83;26.90;;;-1.90;91.90;;;;;;5031543;28;20099;-68
2022/04/03 02:30:35;;;;;;;36.92;24.33;;;-1.90;92.60;;;;;;5033476;28;20314;-67
2022/04/03 02:33:00;;;;;;;35.83;23.08;;;-1.80;92.00;;;;;;5026429;28;20033;-66
2022/04/03 02:35:29;;;;;;;33.35;21.95;;;-1.80;92.60;;;;;;5032021;28;20095;-66
2022/04/03 02:37:55;;;;;;;35.03;24.58;;;-1.80;92.90;;;;;;5022379;28;20044;-66
2022/04/03 02:40:21;;;;;;;39.13;24.52;;;-1.80;93.40;;;;;;5032506;28;20021;-66
2022/04/03 02:42:46;;;;;;;41.35;26.25;;;-1.80;93.40;;;;;;5018019;28;20040;-66
2022/04/03 02:45:15;;;;;;;42.20;27.67;;;-1.80;94.00;;;;;;5018428;28;20406;-68
2022/04/03 02:47:54;;;;;;;35.15;23.40;;;-1.90;93.60;;;;;;5023862;28;20033;-67
2022/04/03 02:50:24;;;;;;;36.15;23.83;;;-1.80;93.00;;;;;;5022179;28;20059;-68
2022/04/03 02:52:54;;;;;;;42.85;25.52;;;-1.80;93.10;;;;;;5024634;28;20415;-68
2022/04/03 02:55:21;;;;;;;34.63;23.02;;;-1.80;93.00;;;;;;5023454;28;20017;-67
2022/04/03 02:57:47;;;;;;;35.63;23.27;;;-1.80;93.20;;;;;;5023981;28;20479;-67
2022/04/03 03:00:17;;;;;;;36.35;24.80;;;-1.80;93.90;;;;;;5022812;28;20029;-68
2022/04/03 03:02:47;;;;;;;39.10;24.75;;;-1.80;93.80;;;;;;5017879;28;20032;-68
2022/04/03 03:05:14;;;;;;;34.47;22.45;;;-1.80;94.00;;;;;;5028846;28;20083;-67
2022/04/03 03:07:41;;;;;;;35.35;24.00;;;-1.70;93.30;;;;;;5016887;28;20117;-67
2022/04/03 03:10:09;;;;;;;44.10;27.27;;;-1.70;94.20;;;;;;5025543;28;20056;-67
2022/04/03 03:12:35;;;;;;;32.13;20.67;;;-1.70;94.60;;;;;;5031229;28;20025;-67
2022/04/03 03:15:03;;;;;;;39.40;26.67;;;-1.80;94.00;;;;;;5024375;28;20034;-68
2022/04/03 03:17:30;;;;;;;28.17;20.73;;;-1.80;94.30;;;;;;5026962;28;20034;-67
2022/04/03 03:19:55;;;;;;;41.33;25.70;;;-1.80;93.80;;;;;;5023158;28;20025;-67
2022/04/03 03:22:21;;;;;;;38.75;25.02;;;-1.80;94.40;;;;;;5020652;28;20472;-66
2022/04/03 03:24:47;;;;;;;39.45;25.50;;;-1.70;94.20;;;;;;5019082;28;20041;-67
2022/04/03 03:27:13;;;;;;;39.15;23.98;;;-1.80;94.80;;;;;;5029338;28;20021;-67
2022/04/03 03:29:38;;;;;;;37.50;25.08;;;-1.80;94.40;;;;;;5025098;28;20092;-67
2022/04/03 03:32:04;;;;;;;40.88;25.40;;;-1.90;94.10;;;;;;5014421;28;20460;-67
2022/04/03 03:34:30;;;;;;;37.78;25.48;;;-1.90;94.00;;;;;;5026783;28;20129;-67
2022/04/03 03:36:56;;;;;;;34.67;22.85;;;-1.80;93.80;;;;;;5023277;28;20104;-68
2022/04/03 03:39:21;;;;;;;39.80;25.83;;;-1.90;93.70;;;;;;5024172;28;20034;-67
2022/04/03 03:41:47;;;;;;;30.33;22.38;;;-1.90;94.00;;;;;;5022508;28;20040;-67
2022/04/03 03:44:13;;;;;;;37.25;24.17;;;-1.80;93.00;;;;;;5025311;28;20469;-67
2022/04/03 03:46:42;;;;;;;31.10;22.30;;;-1.80;94.50;;;;;;5019445;28;20108;-68
2022/04/03 03:49:08;;;;;;;35.72;24.17;;;-1.80;94.10;;;;;;5025675;28;20022;-67
2022/04/03 03:51:36;;;;;;;33.75;22.85;;;-1.90;94.50;;;;;;5027651;28;20138;-68
2022/04/03 03:54:02;;;;;;;32.13;23.08;;;-1.80;94.30;;;;;;5028436;28;20056;-69
2022/04/03 03:56:28;;;;;;;30.60;22.67;;;-1.80;94.50;;;;;;5034766;28;20029;-68
2022/04/03 03:58:54;;;;;;;35.30;23.15;;;-1.80;94.40;;;;;;5023042;28;20092;-68
2022/04/03 04:01:21;;;;;;;37.92;25.42;;;-1.80;94.80;;;;;;5020815;28;20112;-67
2022/04/03 04:03:47;;;;;;;35.58;21.73;;;-1.80;95.40;;;;;;5034290;28;20036;-67
2022/04/03 04:06:12;;;;;;;38.20;23.80;;;-1.90;94.90;;;;;;5027749;28;20026;-67
2022/04/03 04:08:39;;;;;;;31.13;22.27;;;-1.80;95.00;;;;;;5021499;28;20022;-66
2022/04/03 04:11:05;;;;;;;33.75;21.90;;;-1.80;94.80;;;;;;5030010;28;20454;-66
2022/04/03 04:13:34;;;;;;;31.00;21.80;;;-1.80;95.10;;;;;;5024160;28;20018;-67
2022/04/03 04:16:00;;;;;;;27.42;19.50;;;-1.80;94.70;;;;;;5031371;28;20074;-67
2022/04/03 04:18:26;;;;;;;26.65;19.17;;;-1.70;94.80;;;;;;5033388;28;20038;-65
2022/04/03 04:20:53;;;;;;;27.40;19.08;;;-1.70;95.90;;;;;;5034811;28;20525;-68
2022/04/03 04:23:19;;;;;;;29.10;20.33;;;-1.70;96.10;;;;;;5025318;28;20033;-67
2022/04/03 04:25:45;;;;;;;30.33;20.33;;;-1.70;96.00;;;;;;5032739;28;20041;-67
2022/04/03 04:28:11;;;;;;;28.02;18.85;;;-1.70;96.50;;;;;;5021664;28;20100;-67
2022/04/03 04:30:39;;;;;;;30.05;20.27;;;-1.70;96.70;;;;;;5031538;28;20025;-66
2022/04/03 04:33:06;;;;;;;27.48;18.90;;;-1.70;97.10;;;;;;5021837;28;20350;-66
2022/04/03 04:35:33;;;;;;;26.15;17.85;;;-1.70;96.80;;;;;;5030275;28;20026;-68
2022/04/03 04:37:58;;;;;;;31.42;21.80;;;-1.70;97.00;;;;;;5031576;28;20033;-67
2022/04/03 04:40:24;;;;;;;34.28;23.20;;;-1.70;97.80;;;;;;5025662;28;20022;-66
2022/04/03 04:42:52;;;;;;;37.05;24.55;;;-1.70;97.20;;;;;;5024911;28;20047;-69
2022/04/03 04:45:19;;;;;;;40.03;27.60;;;-1.70;97.00;;;;;;5023986;28;20315;-66
2022/04/03 04:47:45;;;;;;;43.00;27.55;;;-1.70;96.50;;;;;;5028897;28;20032;-68
2022/04/03 04:50:14;;;;;;;39.53;25.42;;;-1.70;95.40;;;;;;5030939;28;20028;-67
2022/04/03 04:52:40;;;;;;;38.70;25.30;;;-1.70;95.30;;;;;;5032564;28;20017;-66
2022/04/03 04:55:07;;;;;;;41.20;26.55;;;-1.70;95.90;;;;;;5027335;28;20104;-67
2022/04/03 04:57:34;;;;;;;39.92;27.08;;;-1.70;95.90;;;;;;5023204;28;20025;-66
2022/04/03 05:00:00;;;;;;;36.47;24.80;;;-1.70;95.50;;;;;;5027774;28;20441;-67
2022/04/03 05:02:26;;;;;;;33.65;23.83;;;-1.70;95.20;;;;;;5029157;28;20432;-66
2022/04/03 05:04:52;;;;;;;36.40;23.60;;;-1.70;94.80;;;;;;5033750;28;20033;-68
2022/04/03 05:07:18;;;;;;;38.47;25.55;;;-1.70;95.50;;;;;;5028238;28;20036;-68
2022/04/03 05:09:46;;;;;;;40.72;27.40;;;-1.70;95.80;;;;;;5026805;28;20037;-68
2022/04/03 05:12:12;;;;;;;34.30;23.52;;;-1.70;95.80;;;;;;5033838;28;20049;-67
2022/04/03 05:14:38;;;;;;;31.20;22.73;;;-1.70;95.20;;;;;;5034631;28;20433;-68
2022/04/03 05:17:05;;;;;;;40.10;26.65;;;-1.70;94.90;;;;;;5024432;28;21579;-66
2022/04/03 05:19:32;;;;;;;44.15;29.02;;;-1.70;95.40;;;;;;5029328;28;20021;-68
2022/04/03 05:21:58;;;;;;;32.33;22.83;;;-1.70;95.10;;;;;;5034496;28;20037;-68
2022/04/03 05:24:27;;;;;;;37.05;24.35;;;-1.60;94.90;;;;;;5023391;28;20419;-66
2022/04/03 05:26:52;;;;;;;36.17;24.45;;;-1.50;95.40;;;;;;5028763;28;20365;-66
2022/04/03 05:29:18;;;;;;;35.38;24.48;;;-1.50;96.00;;;;;;5023911;28;20033;-66
2022/04/03 05:31:44;;;;;;;38.38;25.20;;;-1.50;96.00;;;;;;5026854;28;20034;-65
2022/04/03 05:34:10;;;;;;;33.92;24.13;;;-1.50;96.60;;;;;;5023559;28;20026;-64
2022/04/03 05:36:36;;;;;;;35.03;24.92;;;-1.40;95.90;;;;;;5032309;28;20028;-68
2022/04/03 05:39:06;;;;;;;36.58;24.67;;;-1.40;96.30;;;;;;5031935;28;20033;-69
2022/04/03 05:41:33;;;;;;;40.40;24.92;;;-1.40;96.30;;;;;;5021852;28;20033;-67
2022/04/03 05:44:01;;;;;;;42.25;26.65;;;-1.30;96.70;;;;;;5033196;28;20025;-67
2022/04/03 05:46:27;;;;;;;32.72;23.33;;;-1.40;97.50;;;;;;5021044;28;20022;-68
2022/04/03 05:48:52;;;;;;;41.88;27.90;;;-1.40;96.20;;;;;;5026883;28;20032;-67
2022/04/03 05:51:18;;;;;;;43.75;29.25;;;-1.40;96.90;;;;;;5023448;28;20033;-67
2022/04/03 05:53:44;;;;;;;48.40;29.33;;;-1.50;96.30;;;;;;5019339;28;20026;-67
2022/04/03 05:56:09;;;;;;;61.03;31.70;;;-1.40;96.60;;;;;;5034295;28;20029;-67
2022/04/03 05:58:35;;;;;;;47.70;29.38;;;-1.30;96.10;;;;;;5019305;28;20319;-67
2022/04/03 06:01:01;;;;;;;38.60;27.20;;;-1.30;97.50;;;;;;5020750;28;20022;-68
2022/04/03 06:03:27;;;;;;;41.33;26.48;;;-1.30;97.20;;;;;;5032070;28;20021;-66
2022/04/03 06:05:52;;;;;;;40.78;27.42;;;-1.40;96.90;;;;;;5028795;28;20520;-67
2022/04/03 06:08:18;;;;;;;38.80;27.00;;;-1.30;97.00;;;;;;5031446;28;20116;-67
2022/04/03 06:10:44;;;;;;;46.15;30.13;;;-1.30;97.20;;;;;;5023987;28;20045;-66
2022/04/03 06:13:13;;;;;;;38.88;27.42;;;-1.30;97.10;;;;;;5023187;28;20028;-65
2022/04/03 06:15:41;;;;;;;41.95;27.15;;;-1.30;96.90;;;;;;5017349;28;20116;-67
2022/04/03 06:18:08;;;;;;;38.20;26.70;;;-1.30;96.80;;;;;;5018986;28;20096;-67
2022/04/03 06:20:35;;;;;;;37.97;25.63;;;-1.30;97.50;;;;;;5022155;28;20109;-67
2022/04/03 06:23:04;;;;;;;40.88;26.60;;;-1.20;97.30;;;;;;5022602;28;20034;-67
2022/04/03 06:25:30;;;;;;;38.03;25.38;;;-1.20;97.30;;;;;;5019219;28;20029;-66
2022/04/03 06:27:57;;;;;;;39.78;26.38;;;-1.10;96.90;;;;;;5024954;28;20458;-68
2022/04/03 06:30:26;;;;;;;30.48;21.67;;;-1.10;97.60;;;;;;5029267;28;20029;-67
2022/04/03 06:32:51;;;;;;;41.85;27.73;;;-1.00;97.70;;;;;;5034533;28;20049;-67
2022/04/03 06:35:17;;;;;;;35.03;25.38;;;-1.00;98.00;;;;;;5034529;28;20026;-67
2022/04/03 06:37:43;;;;;;;40.72;27.83;;;-1.00;98.00;;;;;;5034511;28;20432;-67
2022/04/03 06:40:09;;;;;;;37.67;25.77;;;-1.00;98.00;;;;;;5032523;28;20025;-67
2022/04/03 06:42:35;;;;;;;35.63;23.92;;;-1.00;98.00;;;;;;5022633;28;20077;-67
2022/04/03 06:45:02;;;;;;;31.02;22.35;;;-0.80;98.00;;;;;;5023777;28;20164;-67
2022/04/03 06:47:29;;;;;;;33.08;21.70;;;-0.80;98.00;;;;;;5018712;28;20030;-68
2022/04/03 06:49:58;;;;;;;34.15;22.02;;;-0.60;98.00;;;;;;5026935;28;20550;-67
2022/04/03 06:52:24;;;;;;;30.60;20.83;;;-0.60;98.00;;;;;;5024716;28;20025;-67
2022/04/03 06:54:49;;;;;;;34.55;23.95;;;-0.50;98.00;;;;;;5028804;28;20410;-67
2022/04/03 06:57:16;;;;;;;30.67;22.15;;;-0.40;98.00;;;;;;5023948;28;20017;-67
2022/04/03 06:59:42;;;;;;;27.52;19.92;;;-0.40;98.00;;;;;;5029865;28;20048;-67
2022/04/03 07:02:08;;;;;;;36.15;24.33;;;-0.50;98.00;;;;;;5027472;28;20499;-66
2022/04/03 07:04:37;;;;;;;35.78;23.23;;;-0.60;98.00;;;;;;5034491;28;20037;-67
2022/04/03 07:07:03;;;;;;;35.05;24.13;;;-0.50;98.00;;;;;;5021230;28;20319;-67
2022/04/03 07:09:30;;;;;;;30.90;21.58;;;-0.40;98.00;;;;;;5019488;28;20418;-67
2022/04/03 07:11:56;;;;;;;30.50;21.33;;;-0.40;98.00;;;;;;5024885;28;20120;-66
2022/04/03 07:14:22;;;;;;;28.17;19.85;;;-0.20;98.00;;;;;;5015881;28;20133;-67
2022/04/03 07:16:48;;;;;;;26.05;20.15;;;-0.10;98.00;;;;;;5016077;28;20458;-66
2022/04/03 07:19:14;;;;;;;27.95;19.58;;;-0.10;98.00;;;;;;5033161;28;20033;-67
2022/04/03 07:21:40;;;;;;;28.92;20.60;;;0.10;98.00;;;;;;5018430;28;20105;-68
2022/04/03 07:24:06;;;;;;;33.30;22.38;;;0.10;98.00;;;;;;5017854;28;20048;-67
2022/04/03 07:26:32;;;;;;;30.38;19.45;;;0.20;98.00;;;;;;5024055;28;20037;-67
2022/04/03 07:28:58;;;;;;;24.40;17.23;;;0.30;98.00;;;;;;5015852;28;20030;-67
2022/04/03 07:31:25;;;;;;;29.08;19.23;;;0.40;98.00;;;;;;5013122;28;20041;-66
2022/04/03 07:33:51;;;;;;;25.48;17.55;;;0.50;98.00;;;;;;5020704;28;20328;-67
2022/04/03 07:36:16;;;;;;;26.83;18.42;;;0.60;98.00;;;;;;5026021;28;20028;-67
2022/04/03 07:38:42;;;;;;;25.77;18.73;;;0.50;98.00;;;;;;5022556;28;20140;-66
2022/04/03 07:41:08;;;;;;;23.98;17.20;;;0.60;98.00;;;;;;5032608;28;20055;-67
2022/04/03 07:43:34;;;;;;;27.63;19.45;;;0.70;98.00;;;;;;5020580;28;20021;-66
2022/04/03 07:45:59;;;;;;;23.48;18.23;;;0.90;98.00;;;;;;5031761;28;20032;-67
2022/04/03 07:48:25;;;;;;;25.80;18.10;;;1.10;98.00;;;;;;5041190;28;20022;-68
2022/04/03 07:50:52;;;;;;;26.00;19.27;;;1.30;98.00;;;;;;5034214;28;20017;-67
2022/04/03 07:53:18;;;;;;;32.92;23.45;;;1.30;98.00;;;;;;5031349;28;20021;-67
2022/04/03 07:55:44;;;;;;;26.02;18.20;;;1.40;98.00;;;;;;5024778;28;20406;-66
2022/04/03 07:58:10;;;;;;;22.02;17.30;;;1.60;98.00;;;;;;5033779;28;20052;-68
2022/04/03 08:00:35;;;;;;;18.38;14.95;;;1.60;98.00;;;;;;5020824;28;20080;-66
2022/04/03 08:03:01;;;;;;;26.40;17.63;;;1.80;98.00;;;;;;5020450;28;20026;-67
2022/04/03 08:05:27;;;;;;;23.05;16.40;;;1.70;98.00;;;;;;5030713;28;20053;-67
2022/04/03 08:07:55;;;;;;;27.58;19.90;;;1.70;98.00;;;;;;5018662;28;20113;-67
2022/04/03 08:10:21;;;;;;;26.35;18.48;;;1.70;98.00;;;;;;5019792;28;20049;-67
2022/04/03 08:12:49;;;;;;;24.98;17.10;;;1.50;98.00;;;;;;5015814;28;20045;-67
2022/04/03 08:15:18;;;;;;;23.00;16.92;;;1.40;98.00;;;;;;5016900;28;20380;-68
2022/04/03 08:17:45;;;;;;;22.30;17.20;;;1.40;98.00;;;;;;5015157;28;20030;-68
2022/04/03 08:20:16;;;;;;;32.08;20.08;;;1.30;98.00;;;;;;5016471;28;20026;-68
2022/04/03 08:22:47;;;;;;;28.20;18.88;;;0.80;98.00;;;;;;5015207;28;20065;-68
2022/04/03 08:25:13;;;;;;;30.55;19.35;;;0.70;98.00;;;;;;5020715;28;20032;-66
2022/04/03 08:28:02;;;;;;;30.92;22.98;;;0.80;98.00;;;;;;5029812;28;20322;-66
2022/04/03 08:30:36;;;;;;;24.55;16.45;;;0.80;98.00;;;;;;5027861;28;20112;-66
2022/04/03 08:33:06;;;;;;;;;;;1.10;98.00;;;;;;5028197;28;20048;-67
2022/04/03 08:35:38;;;;;;;22.38;17.17;;;1.20;98.00;;;;;;5023529;28;19920;-67
2022/04/03 08:38:05;;;;;;;22.23;17.20;;;1.60;98.00;;;;;;5026763;28;20021;-68
2022/04/03 08:40:35;;;;;;;27.70;19.70;;;2.10;98.00;;;;;;5025091;28;20013;-67
2022/04/03 08:43:04;;;;;;;25.23;17.33;;;2.60;98.00;;;;;;5026793;28;20025;-67
2022/04/03 08:45:33;;;;;;;24.30;16.98;;;2.90;95.90;;;;;;5033819;28;20049;-67
2022/04/03 08:48:00;;;;;;;19.60;15.10;;;2.90;96.20;;;;;;5026343;28;20036;-68
2022/04/03 08:50:33;;;;;;;19.38;14.60;;;3.50;95.00;;;;;;5031551;28;20029;-68
2022/04/03 08:53:01;;;;;;;19.38;13.02;;;4.10;92.10;;;;;;5028813;28;20029;-65
2022/04/03 08:55:28;;;;;;;15.40;12.05;;;5.40;89.10;;;;;;5037798;28;20435;-66
2022/04/03 08:57:54;;;;;;;16.40;11.35;;;6.40;86.60;;;;;;5024692;28;20032;-67
2022/04/03 09:00:20;;;;;;;14.27;10.52;;;7.60;82.30;;;;;;5022307;28;20145;-66
2022/04/03 09:02:47;;;;;;;13.10;10.63;;;9.00;79.90;;;;;;5030152;28;20029;-66
2022/04/03 09:05:14;;;;;;;12.40;9.88;;;10.40;74.90;;;;;;5035729;28;20025;-66
2022/04/03 09:07:41;;;;;;;13.25;10.43;;;11.10;71.00;;;;;;5033724;28;20057;-66
2022/04/03 09:10:09;;;;;;;14.23;9.50;;;10.80;70.60;;;;;;5025079;28;20033;-67
2022/04/03 09:12:49;;;;;;;11.35;9.02;;;9.70;70.10;;;;;;5032028;28;20040;-66
2022/04/03 09:15:20;;;;;;;12.60;9.98;;;8.90;71.40;;;;;;5025191;28;20079;-65
2022/04/03 09:17:58;;;;;;;12.75;11.00;;;8.70;73.20;;;;;;5021954;28;20030;-65
2022/04/03 09:20:27;;;;;;;13.10;10.60;;;8.80;73.20;;;;;;5026973;28;20030;-65
2022/04/03 09:22:55;;;;;;;13.52;9.13;;;9.10;73.60;;;;;;5019861;28;20046;-66
2022/04/03 09:25:26;;;;;;;10.48;8.73;;;9.80;72.00;;;;;;5025399;28;20439;-67
2022/04/03 09:28:03;;;;;;;13.50;9.80;;;10.10;71.50;;;;;;5022349;28;20117;-67
2022/04/03 09:30:35;;;;;;;11.13;9.15;;;10.30;69.70;;;;;;5027978;28;20021;-67
2022/04/03 09:33:02;;;;;;;12.73;9.52;;;9.60;69.60;;;;;;5024815;28;20026;-65
2022/04/03 09:35:31;;;;;;;15.95;10.45;;;7.90;72.40;;;;;;5020599;28;20018;-65
2022/04/03 09:38:08;;;;;;;14.63;10.88;;;6.60;77.60;;;;;;5018995;28;20105;-66
2022/04/03 09:40:38;;;;;;;12.35;9.98;;;5.30;80.00;;;;;;5033341;28;20033;-67
2022/04/03 09:43:18;;;;;;;11.98;8.15;;;6.60;79.60;;;;;;5022243;28;20022;-67
2022/04/03 09:45:51;;;;;;;12.55;8.48;;;9.10;74.30;;;;;;5025360;28;20033;-68
2022/04/03 09:48:25;;;;;;;11.10;8.15;;;10.80;70.30;;;;;;5021879;28;20387;-69
2022/04/03 09:51:06;;;;;;;11.25;7.72;;;12.40;66.40;;;;;;5023848;28;20022;-69
2022/04/03 09:53:58;;;;;;;8.07;6.88;;;13.30;62.40;;;;;;5017390;28;20349;-68
2022/04/03 09:56:34;;;;;;;9.35;7.53;;;13.90;59.90;;;;;;5029105;28;20018;-70
2022/04/03 09:59:04;;;;;;;14.07;9.73;;;14.10;59.10;;;;;;5030156;28;20040;-70
2022/04/03 10:01:40;;;;;;;10.73;7.43;;;12.80;59.70;;;;;;5025362;28;20304;-70
2022/04/03 10:04:08;;;;;;;10.27;8.25;;;10.50;63.70;;;;;;5023516;28;20307;-69
2022/04/03 10:06:35;;;;;;;14.15;8.52;;;8.80;68.40;;;;;;5021817;28;20437;-66
2022/04/03 10:09:03;;;;;;;11.18;7.68;;;8.00;70.00;;;;;;5026249;28;20025;-68
2022/04/03 10:11:29;;;;;;;11.82;8.85;;;7.50;72.70;;;;;;5023594;28;20041;-67
2022/04/03 10:13:55;;;;;;;10.95;7.88;;;7.50;72.30;;;;;;5024658;28;20029;-66
2022/04/03 10:16:22;;;;;;;12.02;8.52;;;7.00;75.50;;;;;;5024745;28;20403;-67
2022/04/03 10:18:50;;;;;;;13.50;8.75;;;6.50;75.50;;;;;;5017240;28;20148;-66
2022/04/03 10:21:28;;;;;;;14.18;10.27;;;5.50;77.40;;;;;;5027173;28;20044;-67
2022/04/03 10:23:59;;;;;;;22.45;13.32;;;4.80;80.20;;;;;;5033007;28;20083;-66
2022/04/03 10:26:28;;;;;;;14.93;10.13;;;3.90;83.20;;;;;;5027034;28;20133;-66
2022/04/03 10:28:57;;;;;;;12.00;8.95;;;3.70;85.90;;;;;;5028244;28;20025;-65
2022/04/03 10:31:26;;;;;;;14.35;9.40;;;3.40;86.00;;;;;;5030437;28;20032;-65
2022/04/03 10:33:52;;;;;;;14.82;10.48;;;3.30;85.40;;;;;;5020259;28;20017;-66
2022/04/03 10:36:30;;;;;;;15.98;12.43;;;3.30;87.30;;;;;;5023072;28;20029;-65
2022/04/03 10:39:10;;;;;;;15.65;10.88;;;3.20;88.00;;;;;;5021993;28;20128;-66
2022/04/03 10:41:40;;;;;;;13.55;9.57;;;3.40;88.70;;;;;;5020438;28;20041;-66
2022/04/03 10:44:15;;;;;;;12.00;8.20;;;3.50;87.80;;;;;;5020454;28;20022;-67
2022/04/03 10:47:02;;;;;;;11.93;8.10;;;4.10;86.30;;;;;;5029149;28;20036;-68
2022/04/03 10:49:37;;;;;;;16.40;9.45;;;4.50;83.90;;;;;;5027363;28;20374;-67
2022/04/03 10:52:04;;;;;;;13.43;8.75;;;4.40;83.40;;;;;;5026048;28;20369;-67
2022/04/03 10:54:31;;;;;;;12.40;8.13;;;4.80;84.20;;;;;;5024134;28;20363;-67
2022/04/03 10:57:33;;;;;;;10.90;8.10;;;5.20;81.50;;;;;;5022146;28;20090;-66
2022/04/03 11:00:13;;;;;;;11.30;8.00;;;5.60;79.60;;;;;;5023574;28;21490;-67
2022/04/03 11:02:41;;;;;;;10.45;6.35;;;5.90;78.50;;;;;;5024962;28;20021;-66
2022/04/03 11:05:23;;;;;;;8.70;6.47;;;6.10;75.90;;;;;;5029702;28;20048;-67
2022/04/03 11:08:15;;;;;;;10.13;6.25;;;6.90;76.70;;;;;;5030214;28;20030;-67
2022/04/03 11:11:07;;;;;;;8.85;6.13;;;8.10;73.70;;;;;;5027209;28;20050;-66
2022/04/03 11:13:37;;;;;;;8.95;5.85;;;8.60;70.20;;;;;;5021699;28;20014;-67
2022/04/03 11:16:09;;;;;;;10.32;6.30;;;8.90;69.00;;;;;;5023155;28;20022;-68
2022/04/03 11:18:50;;;;;;;9.82;6.65;;;9.20;68.90;;;;;;5022063;28;20107;-68
2022/04/03 11:21:24;;;;;;;10.30;7.05;;;8.30;68.40;;;;;;5026797;28;20026;-67
2022/04/03 11:24:03;;;;;;;10.20;6.60;;;7.80;71.60;;;;;;5026893;28;20022;-67
2022/04/03 11:26:30;;;;;;;12.57;8.60;;;7.80;70.50;;;;;;5022113;28;20030;-69
2022/04/03 11:28:56;;;;;;;11.73;7.35;;;7.50;71.20;;;;;;5023630;28;20047;-68
2022/04/03 11:31:25;;;;;;;9.80;7.00;;;7.10;72.40;;;;;;5030541;28;20021;-69
2022/04/03 11:33:51;;;;;;;11.68;6.63;;;7.90;72.60;;;;;;5022189;28;20057;-68
2022/04/03 11:36:22;;;;;;;9.38;6.32;;;8.60;70.80;;;;;;5024716;28;20029;-68
2022/04/03 11:38:50;;;;;;;9.40;7.25;;;8.70;69.30;;;;;;5033790;28;20029;-69
2022/04/03 11:41:20;;;;;;;10.63;6.78;;;8.20;69.80;;;;;;5029603;28;20017;-69
2022/04/03 11:44:02;;;;;;;9.30;6.22;;;7.30;72.30;;;;;;5025426;28;20357;-69
2022/04/03 11:46:46;;;;;;;11.00;6.25;;;7.70;71.90;;;;;;5023401;28;20021;-68
2022/04/03 11:49:34;;;;;;;7.80;5.95;;;7.00;72.00;;;;;;5022121;28;20022;-67
2022/04/03 11:52:08;;;;;;;8.00;6.40;;;7.00;73.40;;;;;;5026077;28;20431;-68
2022/04/03 11:54:35;;;;;;;11.38;6.82;;;7.30;72.80;;;;;;5032189;28;20159;-68
2022/04/03 11:57:09;;;;;;;10.55;6.63;;;7.30;73.40;;;;;;5022774;28;20084;-68
2022/04/03 11:59:38;;;;;;;12.43;7.45;;;7.50;71.70;;;;;;5035272;28;20033;-68
2022/04/03 12:02:13;;;;;;;12.10;7.93;;;6.90;72.90;;;;;;5019243;28;20482;-68
2022/04/03 12:04:41;;;;;;;14.93;10.07;;;5.80;75.80;;;;;;5015164;28;20034;-68
2022/04/03 12:07:13;;;;;;;9.98;7.50;;;5.10;79.10;;;;;;5017842;28;20025;-68
2022/04/03 12:09:42;;;;;;;11.38;6.90;;;5.20;80.20;;;;;;5020609;28;20026;-68
2022/04/03 12:12:09;;;;;;;10.60;7.57;;;5.00;79.70;;;;;;5031479;28;20112;-69
2022/04/03 12:14:45;;;;;;;13.88;7.78;;;4.70;81.00;;;;;;5031612;28;20031;-69
2022/04/03 12:17:12;;;;;;;19.95;16.05;;;5.10;81.20;;;;;;5035416;28;20052;-68
2022/04/03 12:19:48;;;;;;;11.75;9.23;;;5.00;81.70;;;;;;5033380;28;20018;-68
2022/04/03 12:22:15;;;;;;;12.27;8.15;;;5.40;80.10;;;;;;5029156;28;20314;-69
2022/04/03 12:24:44;;;;;;;11.07;7.65;;;5.60;79.70;;;;;;5026060;28;20133;-68
2022/04/03 12:27:18;;;;;;;10.77;6.88;;;5.50;80.00;;;;;;5036836;28;20070;-69
2022/04/03 12:29:44;;;;;;;;;;;4.70;81.00;;;;;;5038952;28;20037;-68
2022/04/03 12:32:12;;;;;;;12.43;8.27;;;4.60;81.20;;;;;;5032552;28;20382;-68
2022/04/03 12:34:43;;;;;;;9.70;6.75;;;4.00;82.30;;;;;;5025498;28;20018;-68
2022/04/03 12:37:10;;;;;;;11.50;7.35;;;3.60;83.50;;;;;;5031010;28;20436;-69
2022/04/03 12:39:51;;;;;;;11.93;7.82;;;3.90;84.80;;;;;;5026600;28;20387;-69